Time;durP1;ratioP1;P1;durP2;ratioP2;P2;SDS_P1;SDS_P2;PMS_P1;PMS_P2;Temp;Humidity;BMP_temperature;BMP_pressure;BME280_temperature;BME280_humidity;BME280_pressure;Samples;Min_cycle;Max_cycle;Signal;HPM_P1;HPM_P2
2021/01/05 00:01:04;;;;;;;48.55;18.30;;;;;;;0.91;75.65;95616.63;5051553;28;20049;-69
2021/01/05 00:03:30;;;;;;;48.50;17.55;;;;;;;0.91;75.74;95611.28;5052707;28;20057;-68
2021/01/05 00:05:56;;;;;;;43.22;17.60;;;;;;;0.90;75.70;95609.69;5051621;28;20064;-68
2021/01/05 00:08:22;;;;;;;46.22;18.52;;;;;;;0.92;75.84;95608.31;5051967;28;20041;-69
2021/01/05 00:10:48;;;;;;;43.47;17.75;;;;;;;0.91;75.97;95611.28;5051694;28;20048;-69
2021/01/05 00:13:14;;;;;;;42.55;17.17;;;;;;;0.89;76.07;95616.09;5052020;28;20056;-68
2021/01/05 00:15:40;;;;;;;40.13;16.10;;;;;;;0.83;76.16;95614.50;5055640;28;20044;-68
2021/01/05 00:18:07;;;;;;;37.83;14.55;;;;;;;0.82;76.20;95618.28;5071502;28;20049;-68
2021/01/05 00:20:33;;;;;;;35.58;13.75;;;;;;;0.81;76.01;95622.03;5072397;28;20412;-68
2021/01/05 00:22:59;;;;;;;40.30;16.13;;;;;;;0.78;74.69;95618.84;5070961;28;20206;-68
2021/01/05 00:25:27;;;;;;;37.92;15.45;;;;;;;0.77;74.80;95617.22;5071303;28;20056;-71
2021/01/05 00:27:53;;;;;;;37.80;15.48;;;;;;;0.76;74.93;95615.59;5071482;28;20045;-70
2021/01/05 00:30:22;;;;;;;43.95;15.63;;;;;;;0.73;75.06;95613.50;5071694;28;20419;-71
2021/01/05 00:32:50;;;;;;;41.35;16.40;;;;;;;0.73;75.40;95618.84;5071050;28;20098;-70
2021/01/05 00:35:19;;;;;;;44.25;16.95;;;;;;;0.74;75.61;95612.41;5071879;28;20048;-68
2021/01/05 00:37:47;;;;;;;39.95;16.15;;;;;;;0.75;75.86;95618.56;5070943;28;20048;-71
2021/01/05 00:40:14;;;;;;;41.08;16.83;;;;;;;0.68;76.09;95621.53;5071234;28;20044;-70
2021/01/05 00:42:41;;;;;;;46.28;16.27;;;;;;;0.63;76.26;95626.91;5070996;28;20052;-69
2021/01/05 00:45:09;;;;;;;42.80;15.52;;;;;;;0.60;76.09;95626.66;5070547;28;20737;-70
2021/01/05 00:47:35;;;;;;;36.53;14.88;;;;;;;0.59;76.08;95630.41;5051527;28;20045;-68
2021/01/05 00:50:01;;;;;;;40.72;15.32;;;;;;;0.57;75.92;95644.06;5050697;28;20049;-68
2021/01/05 00:52:28;;;;;;;43.33;16.75;;;;;;;0.59;75.96;95636.56;5051720;28;20041;-69
2021/01/05 00:54:54;;;;;;;42.00;15.10;;;;;;;0.57;75.83;95638.69;5050762;28;20045;-68
2021/01/05 00:57:20;;;;;;;34.55;14.63;;;;;;;0.59;76.04;95639.25;5051257;28;20060;-68
2021/01/05 00:59:46;;;;;;;40.05;15.43;;;;;;;0.62;75.79;95636.00;5051635;28;20067;-68
2021/01/05 01:02:13;;;;;;;44.83;15.88;;;;;;;0.66;75.80;95639.75;5051215;28;20045;-69
2021/01/05 01:04:39;;;;;;;43.80;15.77;;;;;;;0.67;75.88;95636.00;5050669;28;20044;-68
2021/01/05 01:07:05;;;;;;;43.33;16.10;;;;;;;0.66;75.80;95647.00;5050951;28;20126;-68
2021/01/05 01:09:32;;;;;;;39.17;15.35;;;;;;;0.65;75.54;95642.72;5050924;28;20049;-69
2021/01/05 01:12:01;;;;;;;40.17;15.82;;;;;;;0.65;75.43;95635.47;5050736;28;20501;-68
2021/01/05 01:14:27;;;;;;;37.97;15.15;;;;;;;0.67;75.40;95638.69;5050795;28;20044;-68
2021/01/05 01:16:53;;;;;;;37.10;15.27;;;;;;;0.70;75.28;95635.47;5064280;28;20041;-69
2021/01/05 01:19:20;;;;;;;38.08;15.45;;;;;;;0.71;75.30;95637.06;5070958;28;20056;-68
2021/01/05 01:21:47;;;;;;;36.33;15.05;;;;;;;0.73;74.85;95632.25;5069928;28;20518;-68
2021/01/05 01:24:13;;;;;;;38.40;15.07;;;;;;;0.72;74.58;95635.19;5070986;28;20146;-68
2021/01/05 01:26:41;;;;;;;36.22;13.98;;;;;;;0.73;74.57;95632.25;5069706;28;20049;-68
2021/01/05 01:29:07;;;;;;;34.22;13.30;;;;;;;0.69;74.26;95638.44;5070578;28;20041;-69
2021/01/05 01:31:33;;;;;;;37.60;14.57;;;;;;;0.71;74.20;95645.09;5069799;28;20511;-68
2021/01/05 01:33:59;;;;;;;31.42;12.88;;;;;;;0.72;74.26;95641.34;5071033;28;20094;-68
2021/01/05 01:36:25;;;;;;;37.47;14.18;;;;;;;0.73;74.09;95648.34;5070558;28;20048;-70
2021/01/05 01:38:51;;;;;;;32.97;13.88;;;;;;;0.75;74.20;95646.16;5070180;28;20052;-67
2021/01/05 01:41:17;;;;;;;36.58;14.18;;;;;;;0.76;73.97;95646.97;5070298;28;20072;-68
2021/01/05 01:43:44;;;;;;;31.45;14.63;;;;;;;0.74;73.83;95639.22;5056688;28;20061;-68
2021/01/05 01:46:11;;;;;;;34.53;14.25;;;;;;;0.71;73.77;95642.41;5050117;28;20055;-68
2021/01/05 01:48:37;;;;;;;36.33;14.95;;;;;;;0.70;73.95;95640.81;5049963;28;20056;-68
2021/01/05 01:51:04;;;;;;;37.45;15.32;;;;;;;0.70;74.02;95643.50;5050469;28;20044;-69
2021/01/05 01:53:53;;;;;;;32.97;13.88;;;;;;;0.70;74.21;95635.47;5049550;28;20535;-68
2021/01/05 01:56:28;;;;;;;35.28;15.07;;;;;;;0.72;74.12;95635.97;5049802;28;20049;-69
2021/01/05 01:58:57;;;;;;;38.78;15.48;;;;;;;0.68;74.00;95640.31;5050584;28;20041;-69
2021/01/05 02:01:34;;;;;;;34.58;14.43;;;;;;;0.67;74.04;95635.19;5049171;28;20071;-69
2021/01/05 02:04:19;;;;;;;34.22;14.48;;;;;;;0.68;74.09;95636.78;5051027;28;20060;-69
2021/01/05 02:07:11;;;;;;;36.97;14.73;;;;;;;0.68;74.20;95634.94;5046596;28;20053;-68
2021/01/05 02:10:02;;;;;;;36.67;14.88;;;;;;;0.67;74.14;95636.00;5049900;28;20041;-69
2021/01/05 02:12:33;;;;;;;36.03;14.38;;;;;;;0.65;74.26;95630.13;5050234;28;20049;-68
2021/01/05 02:15:11;;;;;;;34.22;13.63;;;;;;;0.62;74.30;95633.34;5052088;28;20056;-68
2021/01/05 02:18:09;;;;;;;34.58;13.00;;;;;;;0.65;74.30;95624.75;5043492;28;20492;-69
2021/01/05 02:20:41;;;;;;;30.15;13.50;;;;;;;0.68;73.85;95626.91;5049074;28;20056;-69
2021/01/05 02:23:49;;;;;;;32.13;14.05;;;;;;;0.73;73.99;95632.25;5048673;28;20041;-68
2021/01/05 02:26:21;;;;;;;30.95;12.82;;;;;;;0.69;73.61;95620.47;5041953;28;20049;-69
2021/01/05 02:28:51;;;;;;;41.60;15.15;;;;;;;0.71;73.73;95623.66;5049365;28;20416;-68
2021/01/05 02:31:39;;;;;;;30.63;14.13;;;;;;;0.71;73.55;95618.31;5049782;28;20041;-68
2021/01/05 02:34:10;;;;;;;30.45;13.43;;;;;;;0.67;73.48;95617.25;5049453;28;20061;-68
2021/01/05 02:36:59;;;;;;;25.63;12.13;;;;;;;0.71;73.73;95618.31;5049581;28;20072;-69
2021/01/05 02:40:10;;;;;;;31.27;13.60;;;;;;;0.67;73.71;95611.88;5049828;28;20045;-68
2021/01/05 02:42:55;;;;;;;28.10;12.57;;;;;;;0.65;74.06;95614.03;5050340;28;20041;-67
2021/01/05 02:45:26;;;;;;;28.58;12.38;;;;;;;0.60;73.59;95610.59;5049490;28;20060;-71
2021/01/05 02:48:06;;;;;;;33.17;14.85;;;;;;;0.61;73.92;95618.34;5053974;28;20098;-68
2021/01/05 02:51:18;;;;;;;32.15;13.20;;;;;;;0.62;74.19;95613.78;5052927;28;20056;-69
2021/01/05 02:54:13;;;;;;;31.00;13.45;;;;;;;0.61;74.00;95604.94;5053628;28;20531;-68
2021/01/05 02:57:07;;;;;;;32.72;13.30;;;;;;;0.61;74.13;95602.25;5053572;28;20045;-69
2021/01/05 03:00:05;;;;;;;32.45;13.57;;;;;;;0.65;74.83;95600.66;5052913;28;20049;-70
2021/01/05 03:03:00;;;;;;;32.05;12.63;;;;;;;0.66;74.91;95586.16;5032287;28;20044;-68
2021/01/05 03:05:26;;;;;;;33.45;13.85;;;;;;;0.68;74.60;95592.06;5053354;28;20071;-69
2021/01/05 03:07:53;;;;;;;26.95;11.90;;;;;;;0.67;74.28;95579.72;5053020;28;20053;-67
2021/01/05 03:10:30;;;;;;;29.60;13.20;;;;;;;0.69;74.09;95582.16;5053339;28;20053;-68
2021/01/05 03:13:17;;;;;;;29.65;12.35;;;;;;;0.73;74.28;95584.00;5055934;28;20428;-70
2021/01/05 03:15:48;;;;;;;29.58;12.80;;;;;;;0.74;74.24;95593.66;5053615;28;20049;-71
2021/01/05 03:18:23;;;;;;;28.55;12.13;;;;;;;0.76;74.19;95585.34;5052394;28;20049;-68
2021/01/05 03:20:56;;;;;;;30.42;12.50;;;;;;;0.80;74.11;95582.91;5052938;28;20049;-68
2021/01/05 03:23:23;;;;;;;36.22;14.35;;;;;;;0.81;74.28;95584.50;5052833;28;20041;-70
2021/01/05 03:25:53;;;;;;;28.70;12.77;;;;;;;0.81;74.29;95595.22;5052145;28;20048;-68
2021/01/05 03:28:22;;;;;;;31.25;13.00;;;;;;;0.80;74.15;95599.00;5053019;28;20500;-69
2021/01/05 03:30:54;;;;;;;28.88;12.52;;;;;;;0.81;74.05;95592.56;5052400;28;20044;-69
2021/01/05 03:33:20;;;;;;;25.10;12.30;;;;;;;0.83;74.17;95593.88;5052932;28;20459;-68
2021/01/05 03:35:46;;;;;;;30.83;12.30;;;;;;;0.83;74.21;95598.44;5052293;28;20048;-69
2021/01/05 03:38:13;;;;;;;29.55;12.00;;;;;;;0.83;74.11;95596.53;5052279;28;20453;-69
2021/01/05 03:40:39;;;;;;;30.70;11.98;;;;;;;0.84;73.91;95594.69;5053410;28;20073;-69
2021/01/05 03:43:05;;;;;;;26.98;11.40;;;;;;;0.80;73.96;95594.44;5054743;28;20044;-69
2021/01/05 03:45:32;;;;;;;30.23;12.98;;;;;;;0.78;74.07;95594.72;5052923;28;20053;-69
2021/01/05 03:47:59;;;;;;;25.88;10.98;;;;;;;0.83;74.03;95598.44;5052168;28;20079;-68
2021/01/05 03:50:26;;;;;;;27.80;10.98;;;;;;;0.84;73.66;95594.69;5052734;28;20053;-69
2021/01/05 03:52:52;;;;;;;20.25;10.05;;;;;;;0.84;73.67;95594.69;5051939;28;20098;-68
2021/01/05 03:55:19;;;;;;;25.05;10.82;;;;;;;0.82;73.89;95597.63;5052683;28;20045;-69
2021/01/05 03:57:45;;;;;;;27.98;10.65;;;;;;;0.84;73.97;95583.97;5051660;28;20671;-69
2021/01/05 04:00:17;;;;;;;29.17;11.30;;;;;;;0.82;73.59;95583.44;5052318;28;20455;-69
2021/01/05 04:02:44;;;;;;;26.52;11.45;;;;;;;0.78;73.55;95581.31;5052060;28;20139;-68
2021/01/05 04:05:13;;;;;;;25.23;10.93;;;;;;;0.80;73.52;95582.91;5051651;28;20055;-68
2021/01/05 04:07:39;;;;;;;26.23;11.00;;;;;;;0.83;73.75;95590.38;5052381;28;20041;-69
2021/01/05 04:10:06;;;;;;;24.40;10.10;;;;;;;0.85;73.77;95585.56;5051509;28;20052;-68
2021/01/05 04:12:32;;;;;;;24.15;10.40;;;;;;;0.85;73.87;95591.72;5053217;28;20049;-68
2021/01/05 04:14:58;;;;;;;24.13;10.35;;;;;;;0.83;73.91;95598.44;5054063;28;20091;-68
2021/01/05 04:17:24;;;;;;;27.80;11.40;;;;;;;0.82;74.06;95594.16;5052146;28;20065;-68
2021/01/05 04:19:50;;;;;;;24.00;10.95;;;;;;;0.81;74.02;95589.88;5051478;28;20073;-68
2021/01/05 04:22:17;;;;;;;24.27;10.38;;;;;;;0.77;74.08;95590.41;5051972;28;20067;-68
2021/01/05 04:24:43;;;;;;;29.48;11.82;;;;;;;0.74;74.11;95590.97;5051419;28;20045;-68
2021/01/05 04:27:09;;;;;;;27.15;11.57;;;;;;;0.74;74.03;95585.63;5051467;28;20220;-68
2021/01/05 04:29:34;;;;;;;22.50;9.93;;;;;;;0.77;74.10;95589.59;5052365;28;20565;-69
2021/01/05 04:32:00;;;;;;;29.00;11.80;;;;;;;0.74;74.10;95596.34;5051626;28;20543;-68
2021/01/05 04:34:26;;;;;;;22.65;10.45;;;;;;;0.76;74.11;95598.72;5043654;28;20045;-68
2021/01/05 04:36:52;;;;;;;24.50;11.55;;;;;;;0.70;73.63;95600.63;5050863;28;20484;-69
2021/01/05 04:39:19;;;;;;;30.60;11.18;;;;;;;0.71;73.69;95596.06;5051590;28;20120;-68
2021/01/05 04:41:51;;;;;;;26.95;10.98;;;;;;;0.70;73.80;95595.28;5050803;28;20053;-68
2021/01/05 04:44:18;;;;;;;29.80;10.90;;;;;;;0.74;73.54;95601.69;5055054;28;20049;-68
2021/01/05 04:46:52;;;;;;;31.55;12.23;;;;;;;0.74;73.18;95607.06;5050743;28;20516;-68
2021/01/05 04:50:09;;;;;;;27.33;11.98;;;;;;;0.73;73.44;95616.19;5051304;28;20056;-68
2021/01/05 04:52:45;;;;;;;30.92;12.60;;;;;;;0.72;73.52;95619.09;5051813;28;20049;-68
2021/01/05 04:55:41;;;;;;;28.50;12.40;;;;;;;0.72;73.70;95622.59;5050280;28;20049;-68
2021/01/05 04:58:12;;;;;;;29.60;12.05;;;;;;;0.66;73.88;95621.00;5045383;28;20519;-68
2021/01/05 05:00:41;;;;;;;26.65;11.23;;;;;;;0.68;74.08;95618.88;5051378;28;20412;-67
2021/01/05 05:03:21;;;;;;;28.95;12.30;;;;;;;0.67;74.13;95622.59;5050500;28;20543;-68
2021/01/05 05:05:57;;;;;;;26.23;10.27;;;;;;;0.66;74.17;95626.34;5051681;28;20052;-68
2021/01/05 05:08:59;;;;;;;23.17;10.52;;;;;;;0.63;74.31;95629.59;5049597;28;20416;-68
2021/01/05 05:11:31;;;;;;;29.17;12.30;;;;;;;0.63;74.31;95634.97;5046792;28;20505;-68
2021/01/05 05:14:02;;;;;;;24.80;10.70;;;;;;;0.65;73.92;95630.13;5054259;28;20044;-69
2021/01/05 05:16:49;;;;;;;23.45;10.27;;;;;;;0.62;73.92;95636.00;5049995;28;20408;-69
2021/01/05 05:19:33;;;;;;;28.02;10.30;;;;;;;0.60;73.86;95624.78;5050958;28;20095;-69
2021/01/05 05:22:04;;;;;;;24.63;10.00;;;;;;;0.57;74.00;95636.03;5050314;28;20083;-68
2021/01/05 05:24:43;;;;;;;22.67;10.98;;;;;;;0.58;73.91;95634.97;5050872;28;20049;-69
2021/01/05 05:27:17;;;;;;;27.95;10.93;;;;;;;0.58;73.92;95636.84;5050059;28;20060;-68
2021/01/05 05:29:46;;;;;;;26.30;10.20;;;;;;;0.58;73.72;95640.34;5050576;28;20059;-68
2021/01/05 05:32:29;;;;;;;23.02;9.95;;;;;;;0.56;73.59;95641.66;5050349;28;20072;-69
2021/01/05 05:35:23;;;;;;;24.58;11.32;;;;;;;0.56;73.38;95637.09;5049990;28;20752;-68
2021/01/05 05:37:55;;;;;;;;;;;;;;;0.51;73.32;95645.94;5051211;28;20409;-69
2021/01/05 05:40:34;;;;;;;27.42;10.50;;;;;;;0.48;74.06;95645.72;5049951;28;19935;-69
2021/01/05 05:43:29;;;;;;;24.55;10.32;;;;;;;0.47;74.16;95644.09;5053623;28;20504;-68
2021/01/05 05:46:00;;;;;;;23.88;9.02;;;;;;;0.48;73.74;95643.84;5050964;28;20119;-68
2021/01/05 05:48:39;;;;;;;24.67;10.68;;;;;;;0.51;73.51;95650.50;5049240;28;20072;-68
2021/01/05 05:51:10;;;;;;;22.92;10.02;;;;;;;0.54;73.18;95652.66;5050499;28;20044;-69
2021/01/05 05:53:43;;;;;;;22.55;9.80;;;;;;;0.57;73.21;95654.78;5050081;28;20052;-69
2021/01/05 05:56:14;;;;;;;21.00;10.02;;;;;;;0.61;73.10;95655.84;5049479;28;20056;-69
2021/01/05 05:58:44;;;;;;;28.50;11.98;;;;;;;0.47;72.99;95660.16;5050229;28;20057;-69
2021/01/05 06:01:14;;;;;;;28.90;11.80;;;;;;;0.35;73.17;95662.31;5049506;28;20053;-69
2021/01/05 06:03:41;;;;;;;26.67;10.90;;;;;;;0.40;73.09;95659.63;5050696;28;20048;-69
2021/01/05 06:06:07;;;;;;;25.33;11.27;;;;;;;0.45;73.12;95662.31;5049103;28;20056;-69
2021/01/05 06:08:33;;;;;;;29.13;11.52;;;;;;;0.48;73.16;95667.13;5050859;28;20540;-69
2021/01/05 06:10:59;;;;;;;29.35;12.77;;;;;;;0.52;73.64;95668.19;5048992;28;20069;-69
2021/01/05 06:13:25;;;;;;;26.13;10.98;;;;;;;0.56;73.68;95669.25;5053333;28;20099;-69
2021/01/05 06:15:52;;;;;;;30.48;11.73;;;;;;;0.61;73.83;95660.41;5049647;28;20064;-69
2021/01/05 06:18:18;;;;;;;28.85;11.30;;;;;;;0.64;73.63;95662.56;5049549;28;20048;-68
2021/01/05 06:20:45;;;;;;;31.33;13.10;;;;;;;0.65;73.22;95662.28;5051107;28;20052;-69
2021/01/05 06:23:11;;;;;;;23.88;11.35;;;;;;;0.61;73.32;95661.19;5053485;28;20059;-68
2021/01/05 06:25:37;;;;;;;29.60;13.45;;;;;;;0.61;73.29;95669.25;5054190;28;20052;-69
2021/01/05 06:28:04;;;;;;;29.80;11.50;;;;;;;0.61;73.33;95674.59;5053094;28;20069;-69
2021/01/05 06:30:30;;;;;;;29.85;11.95;;;;;;;0.63;73.46;95674.34;5054704;28;20041;-68
2021/01/05 06:32:57;;;;;;;25.95;10.95;;;;;;;0.64;73.38;95676.75;5053415;28;20051;-69
2021/01/05 06:35:24;;;;;;;26.17;11.23;;;;;;;0.66;73.41;95674.59;5054044;28;20115;-71
2021/01/05 06:37:52;;;;;;;24.27;11.02;;;;;;;0.69;72.98;95679.41;5053345;28;20397;-68
2021/01/05 06:40:21;;;;;;;28.90;11.93;;;;;;;0.71;72.93;95674.56;5053794;28;20041;-69
2021/01/05 06:42:47;;;;;;;28.63;12.15;;;;;;;0.69;72.79;95676.75;5056263;28;20045;-68
2021/01/05 06:45:18;;;;;;;30.33;12.93;;;;;;;0.70;72.67;95678.34;5053868;28;20049;-68
2021/01/05 06:47:45;;;;;;;26.58;12.02;;;;;;;0.68;72.45;95671.63;5054147;28;20044;-68
2021/01/05 06:50:13;;;;;;;27.35;12.15;;;;;;;0.68;72.37;95672.47;5052820;28;20045;-68
2021/01/05 06:52:39;;;;;;;33.30;13.10;;;;;;;0.70;72.53;95681.03;5054423;28;20128;-68
2021/01/05 06:55:07;;;;;;;30.20;12.23;;;;;;;0.71;72.69;95681.81;5052293;28;20123;-69
2021/01/05 06:57:33;;;;;;;29.00;12.48;;;;;;;0.71;72.63;95677.25;5053878;28;20049;-69
2021/01/05 06:59:59;;;;;;;27.35;12.77;;;;;;;0.73;72.57;95690.38;5052965;28;20045;-69
2021/01/05 07:02:25;;;;;;;30.10;12.73;;;;;;;0.69;72.37;95689.34;5053255;28;20454;-69
2021/01/05 07:04:50;;;;;;;31.92;13.15;;;;;;;0.68;72.38;95703.78;5053220;28;20480;-69
2021/01/05 07:07:17;;;;;;;31.75;14.13;;;;;;;0.71;72.56;95697.91;5052941;28;20049;-69
2021/01/05 07:09:43;;;;;;;30.98;13.57;;;;;;;0.69;72.73;95700.06;5053378;28;20072;-69
2021/01/05 07:12:10;;;;;;;35.13;14.80;;;;;;;0.71;72.64;95696.00;5052469;28;20524;-68
2021/01/05 07:14:36;;;;;;;33.80;14.75;;;;;;;0.72;72.60;95702.97;5056892;28;20150;-69
2021/01/05 07:17:02;;;;;;;29.65;12.55;;;;;;;0.74;72.70;95698.16;5051817;28;20049;-69
2021/01/05 07:19:28;;;;;;;31.45;13.43;;;;;;;0.76;72.42;95696.00;5053905;28;20400;-69
2021/01/05 07:21:54;;;;;;;32.88;13.10;;;;;;;0.76;72.28;95706.72;5052527;28;20492;-68
2021/01/05 07:24:21;;;;;;;37.92;14.85;;;;;;;0.77;72.23;95702.97;5053210;28;20049;-69
2021/01/05 07:26:49;;;;;;;33.45;13.48;;;;;;;0.76;71.70;95706.72;5052297;28;20099;-69
2021/01/05 07:29:19;;;;;;;33.03;14.45;;;;;;;0.70;71.66;95715.84;5052713;28;20041;-69
2021/01/05 07:31:45;;;;;;;38.67;14.45;;;;;;;0.61;71.78;95717.47;5052482;28;20111;-68
2021/01/05 07:34:12;;;;;;;33.80;14.48;;;;;;;0.65;71.54;95718.53;5052248;28;20041;-68
2021/01/05 07:36:42;;;;;;;36.15;14.30;;;;;;;0.63;72.05;95723.38;5052993;28;20083;-69
2021/01/05 07:39:18;;;;;;;36.08;14.45;;;;;;;0.63;71.83;95727.94;5051770;28;20049;-69
2021/01/05 07:41:45;;;;;;;34.97;14.45;;;;;;;0.55;71.60;95721.22;5053434;28;20113;-68
2021/01/05 07:44:11;;;;;;;34.83;15.48;;;;;;;0.56;71.96;95730.88;5054996;28;20561;-69
2021/01/05 07:46:37;;;;;;;36.38;14.95;;;;;;;0.53;71.91;95734.09;5053119;28;20060;-68
2021/01/05 07:49:03;;;;;;;37.55;14.88;;;;;;;0.44;72.04;95730.34;5050884;28;20626;-69
2021/01/05 07:51:29;;;;;;;37.13;14.60;;;;;;;0.40;72.31;95734.63;5051520;28;20049;-69
2021/01/05 07:53:55;;;;;;;38.47;15.15;;;;;;;0.39;72.50;95738.38;5052482;28;20079;-69
2021/01/05 07:56:21;;;;;;;39.85;18.23;;;;;;;0.28;72.81;95742.94;5051919;28;20080;-68
2021/01/05 07:58:48;;;;;;;37.33;14.85;;;;;;;0.31;72.90;95742.38;5052214;28;20455;-68
2021/01/05 08:01:14;;;;;;;37.50;14.93;;;;;;;0.36;72.93;95746.94;5051096;28;20045;-71
2021/01/05 08:03:40;;;;;;;36.47;14.30;;;;;;;0.42;72.78;95749.38;5052829;28;20067;-68
2021/01/05 08:06:07;;;;;;;38.55;14.40;;;;;;;0.47;72.85;95759.25;5050960;28;20098;-70
2021/01/05 08:08:33;;;;;;;39.65;14.88;;;;;;;0.47;72.65;95762.78;5052834;28;20053;-71
2021/01/05 08:10:59;;;;;;;35.95;14.10;;;;;;;0.46;72.30;95760.34;5051778;28;20074;-68
2021/01/05 08:13:25;;;;;;;35.17;14.00;;;;;;;0.54;72.06;95761.69;5055460;28;20045;-68
2021/01/05 08:15:51;;;;;;;36.95;14.77;;;;;;;0.57;71.90;95761.13;5051988;28;20055;-68
2021/01/05 08:18:18;;;;;;;34.83;14.80;;;;;;;0.62;72.29;95758.47;5051427;28;20045;-71
2021/01/05 08:20:44;;;;;;;35.58;15.07;;;;;;;0.64;72.15;95762.50;5052143;28;20049;-68
2021/01/05 08:23:10;;;;;;;37.75;15.00;;;;;;;0.64;71.98;95757.13;5050904;28;20064;-68
2021/01/05 08:25:36;;;;;;;36.13;14.65;;;;;;;0.59;71.51;95765.16;5052248;28;20056;-67
2021/01/05 08:28:02;;;;;;;41.88;15.68;;;;;;;0.41;71.84;95761.13;5050722;28;20052;-72
2021/01/05 08:30:30;;;;;;;37.35;14.02;;;;;;;0.39;72.14;95768.66;5052388;28;20049;-70
2021/01/05 08:33:01;;;;;;;35.10;14.55;;;;;;;0.42;72.42;95770.81;5051097;28;20709;-71
2021/01/05 08:35:27;;;;;;;38.70;14.13;;;;;;;0.45;72.70;95775.59;5051782;28;20041;-69
2021/01/05 08:37:53;;;;;;;40.70;14.82;;;;;;;0.37;72.34;95775.34;5051009;28;20531;-69
2021/01/05 08:40:22;;;;;;;35.65;15.43;;;;;;;0.34;72.62;95767.84;5051289;28;20069;-69
2021/01/05 08:42:48;;;;;;;33.35;14.30;;;;;;;0.40;72.40;95772.13;5053614;28;20656;-68
2021/01/05 08:45:15;;;;;;;41.58;15.30;;;;;;;0.29;72.79;95765.97;5069756;28;20048;-70
2021/01/05 08:47:41;;;;;;;38.70;14.07;;;;;;;0.07;73.28;95771.56;5071525;28;20044;-68
2021/01/05 08:50:14;;;;;;;42.00;15.55;;;;;;;0.17;73.21;95771.59;5070443;28;20041;-70
2021/01/05 08:52:40;;;;;;;37.45;14.38;;;;;;;0.27;73.44;95778.03;5071736;28;20568;-70
2021/01/05 08:55:07;;;;;;;40.78;14.32;;;;;;;0.40;73.64;95777.50;5070205;28;20052;-73
2021/01/05 08:57:33;;;;;;;34.08;14.07;;;;;;;0.37;72.84;95783.41;5071957;28;20041;-73
2021/01/05 09:00:01;;;;;;;37.10;13.80;;;;;;;0.45;72.89;95782.84;5070719;28;20056;-69
2021/01/05 09:02:27;;;;;;;37.72;15.30;;;;;;;0.46;72.70;95787.13;5070586;28;20040;-70
2021/01/05 09:04:53;;;;;;;33.17;14.52;;;;;;;0.52;72.76;95786.88;5070773;28;20051;-70
2021/01/05 09:07:20;;;;;;;41.80;15.73;;;;;;;0.39;72.56;95787.41;5070221;28;20128;-70
2021/01/05 09:09:46;;;;;;;41.50;15.57;;;;;;;0.37;72.80;95786.88;5070599;28;20045;-71
2021/01/05 09:12:12;;;;;;;38.72;15.57;;;;;;;0.30;72.94;95790.88;5070834;28;20492;-70
2021/01/05 09:14:38;;;;;;;38.95;14.77;;;;;;;0.25;73.02;95797.03;5057057;28;20128;-69
2021/01/05 09:17:04;;;;;;;41.40;15.70;;;;;;;0.22;73.49;95793.00;5049826;28;20428;-70
2021/01/05 09:19:31;;;;;;;44.15;16.70;;;;;;;0.23;73.22;95786.59;5051395;28;20060;-71
2021/01/05 09:21:57;;;;;;;46.38;16.67;;;;;;;0.19;73.42;95793.53;5050371;28;20041;-71
2021/01/05 09:24:25;;;;;;;43.50;16.63;;;;;;;0.02;73.94;95795.66;5050294;28;20482;-71
2021/01/05 09:26:52;;;;;;;42.88;16.63;;;;;;;-0.13;74.91;95790.25;5053391;28;20503;-71
2021/01/05 09:29:19;;;;;;;41.45;16.40;;;;;;;-0.07;74.93;95789.19;5067949;28;20044;-71
2021/01/05 09:31:47;;;;;;;44.50;16.42;;;;;;;-0.13;75.08;95792.94;5068672;28;20076;-71
2021/01/05 09:34:16;;;;;;;45.92;16.63;;;;;;;-0.18;75.58;95783.03;5068593;28;20132;-70
2021/01/05 09:36:43;;;;;;;49.97;17.92;;;;;;;-0.26;76.11;95786.22;5067112;28;20056;-70
2021/01/05 09:39:11;;;;;;;47.50;17.67;;;;;;;-0.28;76.25;95789.16;5068449;28;20048;-70
2021/01/05 09:41:41;;;;;;;48.83;17.83;;;;;;;-0.31;76.44;95787.00;5069944;28;20067;-71
2021/01/05 09:44:07;;;;;;;48.75;17.00;;;;;;;-0.19;76.05;95791.31;5059228;28;20122;-70
2021/01/05 09:46:34;;;;;;;49.40;17.17;;;;;;;-0.09;75.98;95789.47;5049970;28;20127;-71
2021/01/05 09:49:00;;;;;;;43.38;17.00;;;;;;;-0.16;76.00;95780.06;5049125;28;20397;-70
2021/01/05 09:51:28;;;;;;;48.15;17.63;;;;;;;-0.05;76.04;95787.09;5041174;28;20040;-70
2021/01/05 09:53:54;;;;;;;44.50;16.25;;;;;;;-0.01;75.68;95782.78;5051103;28;20048;-70
2021/01/05 09:56:20;;;;;;;48.55;17.50;;;;;;;-0.05;74.92;95776.38;5049329;28;20045;-70
2021/01/05 09:58:48;;;;;;;49.88;17.38;;;;;;;-0.13;75.41;95775.00;5050229;28;20520;-72
2021/01/05 10:01:15;;;;;;;49.85;18.23;;;;;;;-0.05;75.11;95776.38;5049348;28;20187;-71
2021/01/05 10:03:44;;;;;;;42.17;16.75;;;;;;;-0.07;74.89;95767.78;5051050;28;20136;-70
2021/01/05 10:06:11;;;;;;;41.42;16.27;;;;;;;-0.02;74.89;95775.84;5048907;28;20053;-71
2021/01/05 10:08:37;;;;;;;40.47;15.63;;;;;;;-0.05;75.00;95773.69;5050707;28;20072;-69
2021/01/05 10:11:03;;;;;;;39.53;14.77;;;;;;;-0.24;74.79;95769.91;5049280;28;20041;-71
2021/01/05 10:13:29;;;;;;;36.70;14.23;;;;;;;-0.14;74.87;95761.91;5053651;28;20044;-71
2021/01/05 10:15:56;;;;;;;39.65;15.85;;;;;;;-0.09;74.86;95756.56;5049540;28;20124;-70
2021/01/05 10:18:22;;;;;;;37.65;15.38;;;;;;;-0.05;74.81;95754.97;5049467;28;20053;-70
2021/01/05 10:20:49;;;;;;;37.42;15.27;;;;;;;-0.24;75.07;95753.84;5049862;28;20053;-70
2021/01/05 10:23:15;;;;;;;41.08;15.73;;;;;;;-0.05;74.97;95760.31;5049234;28;20099;-70
2021/01/05 10:25:41;;;;;;;38.72;15.43;;;;;;;0.16;74.72;95756.59;5050222;28;20478;-70
2021/01/05 10:28:06;;;;;;;37.13;15.07;;;;;;;0.24;74.16;95752.56;5048853;28;20053;-70
2021/01/05 10:30:32;;;;;;;37.25;15.00;;;;;;;0.36;73.68;95754.97;5050587;28;20056;-69
2021/01/05 10:32:59;;;;;;;39.03;15.27;;;;;;;0.44;72.86;95746.44;5049455;28;20041;-72
2021/01/05 10:35:25;;;;;;;38.17;15.40;;;;;;;0.08;72.77;95746.41;5049686;28;20041;-70
2021/01/05 10:37:51;;;;;;;37.83;14.85;;;;;;;-0.03;73.65;95737.56;5048736;28;20041;-70
2021/01/05 10:40:20;;;;;;;38.60;15.55;;;;;;;-0.17;74.18;95741.00;5049492;28;20481;-70
2021/01/05 10:42:49;;;;;;;40.90;15.15;;;;;;;-0.15;74.39;95742.38;5052482;28;20432;-69
2021/01/05 10:45:19;;;;;;;41.70;15.07;;;;;;;-0.05;74.14;95738.91;5050380;28;20045;-70
2021/01/05 10:47:45;;;;;;;37.50;15.68;;;;;;;-0.06;73.81;95734.59;5050210;28;20049;-69
2021/01/05 10:50:15;;;;;;;37.10;15.35;;;;;;;0.03;73.96;95735.69;5048717;28;20407;-69
2021/01/05 10:52:41;;;;;;;33.47;15.07;;;;;;;0.02;73.90;95731.41;5050449;28;20128;-69
2021/01/05 10:55:08;;;;;;;38.10;14.73;;;;;;;0.09;73.57;95728.47;5048443;28;20044;-69
2021/01/05 10:57:34;;;;;;;37.20;14.25;;;;;;;0.38;73.26;95732.22;5049815;28;20041;-69
2021/01/05 11:00:00;;;;;;;34.92;14.40;;;;;;;0.49;72.26;95725.00;5048647;28;20123;-69
2021/01/05 11:02:26;;;;;;;37.88;14.13;;;;;;;0.56;72.02;95717.47;5069270;28;20893;-68
2021/01/05 11:04:52;;;;;;;38.13;15.23;;;;;;;0.62;70.96;95727.09;5069501;28;20059;-71
2021/01/05 11:07:19;;;;;;;33.75;14.13;;;;;;;0.64;70.49;95722.31;5070838;28;20072;-68
2021/01/05 11:09:45;;;;;;;32.08;14.80;;;;;;;0.69;70.63;95727.66;5073691;28;20049;-71
2021/01/05 11:12:13;;;;;;;36.17;15.52;;;;;;;0.62;70.55;95727.09;5073471;28;20102;-70
2021/01/05 11:14:41;;;;;;;36.45;14.57;;;;;;;0.78;70.43;95726.03;5059197;28;20040;-69
2021/01/05 11:17:08;;;;;;;33.63;13.88;;;;;;;0.82;70.02;95722.78;5052251;28;20122;-69
2021/01/05 11:19:35;;;;;;;37.08;14.48;;;;;;;0.80;69.80;95725.75;5053890;28;20045;-69
2021/01/05 11:22:04;;;;;;;33.50;14.13;;;;;;;0.77;69.91;95724.41;5052182;28;20044;-69
2021/01/05 11:24:35;;;;;;;32.90;13.30;;;;;;;0.84;69.99;95724.16;5044872;28;20134;-70
2021/01/05 11:27:01;;;;;;;32.30;13.70;;;;;;;0.97;69.83;95722.75;5052921;28;20128;-69
2021/01/05 11:29:27;;;;;;;34.45;14.27;;;;;;;1.04;69.92;95728.63;5052873;28;20123;-70
2021/01/05 11:31:55;;;;;;;34.78;13.95;;;;;;;1.01;69.48;95727.31;5053267;28;20065;-70
2021/01/05 11:34:21;;;;;;;36.10;14.13;;;;;;;1.06;69.54;95726.50;5052036;28;20567;-71
2021/01/05 11:36:47;;;;;;;36.72;14.35;;;;;;;1.15;69.85;95729.41;5053208;28;20498;-70